Time;durP1;ratioP1;P1;durP2;ratioP2;P2;SDS_P1;SDS_P2;PMS_P1;PMS_P2;Temp;Humidity;BMP_temperature;BMP_pressure;BME280_temperature;BME280_humidity;BME280_pressure;Samples;Min_cycle;Max_cycle;Signal;HPM_P1;HPM_P2
2022/10/07 00:00:49;;;;;;;11.68;1.38;;;;;;;11.43;100.00;101760.16;5036633;28;20151;-50
2022/10/07 00:03:15;;;;;;;6.90;0.93;;;;;;;11.48;100.00;101767.63;5040840;28;20021;-53
2022/10/07 00:05:40;;;;;;;4.35;1.95;;;;;;;11.49;100.00;101764.81;5036091;28;20120;-54
2022/10/07 00:08:06;;;;;;;14.20;1.92;;;;;;;11.54;100.00;101770.47;5034933;28;20396;-53
2022/10/07 00:10:35;;;;;;;5.45;1.38;;;;;;;11.56;100.00;101772.94;5033064;28;20063;-52
2022/10/07 00:13:01;;;;;;;12.27;1.48;;;;;;;11.58;100.00;101768.28;5033326;28;20470;-50
2022/10/07 00:15:26;;;;;;;13.43;1.52;;;;;;;11.63;100.00;101765.16;5033256;28;20048;-53
2022/10/07 00:17:52;;;;;;;12.95;1.65;;;;;;;11.63;100.00;101763.31;5043804;28;20545;-51
2022/10/07 00:20:17;;;;;;;4.82;1.08;;;;;;;11.63;100.00;101755.34;5035293;28;20481;-48
2022/10/07 00:22:43;;;;;;;9.88;1.65;;;;;;;11.61;100.00;101749.34;5042979;28;20025;-48
2022/10/07 00:25:08;;;;;;;4.32;0.85;;;;;;;11.60;100.00;101754.84;5037283;28;20497;-48
2022/10/07 00:27:34;;;;;;;8.57;1.77;;;;;;;11.61;100.00;101741.41;5031647;28;20129;-50
2022/10/07 00:29:59;;;;;;;8.65;1.25;;;;;;;11.63;100.00;101743.91;5040033;28;20080;-50
2022/10/07 00:32:25;;;;;;;10.43;0.50;;;;;;;11.61;100.00;101740.56;5038571;28;20093;-51
2022/10/07 00:34:51;;;;;;;5.22;1.17;;;;;;;11.57;100.00;101748.88;5035324;28;20513;-54
2022/10/07 00:37:16;;;;;;;6.60;1.25;;;;;;;11.56;100.00;101738.41;5039548;28;20025;-50
2022/10/07 00:39:41;;;;;;;8.95;2.20;;;;;;;11.56;100.00;101741.06;5027004;28;20052;-50
2022/10/07 00:42:11;;;;;;;11.30;0.75;;;;;;;11.57;100.00;101740.91;5035469;28;20397;-48
2022/10/07 00:44:40;;;;;;;8.02;1.52;;;;;;;11.53;100.00;101746.72;5040475;28;20037;-47
2022/10/07 00:47:14;;;;;;;11.18;2.63;;;;;;;11.53;100.00;101734.25;5039580;28;20029;-47
2022/10/07 00:49:49;;;;;;;4.70;0.82;;;;;;;11.52;100.00;101737.09;5033427;28;20025;-51
2022/10/07 00:52:16;;;;;;;10.60;1.27;;;;;;;11.51;100.00;101741.59;5035750;28;20470;-47
2022/10/07 00:54:42;;;;;;;8.40;2.00;;;;;;;11.49;100.00;101729.47;5039065;28;20493;-50
2022/10/07 00:57:08;;;;;;;14.63;4.10;;;;;;;11.52;100.00;101731.78;5041946;28;20155;-49
2022/10/07 00:59:36;;;;;;;9.52;1.70;;;;;;;11.48;100.00;101730.44;5042827;28;20041;-53
2022/10/07 01:02:02;;;;;;;16.55;0.68;;;;;;;11.43;100.00;101727.47;5039175;28;20128;-51
2022/10/07 01:04:28;;;;;;;8.93;1.67;;;;;;;11.41;100.00;101724.97;5032825;28;20148;-47
2022/10/07 01:06:54;;;;;;;12.13;2.20;;;;;;;11.37;100.00;101723.66;5028116;28;20036;-48
2022/10/07 01:09:20;;;;;;;5.78;0.68;;;;;;;11.37;100.00;101717.50;5041657;28;20033;-47
2022/10/07 01:11:56;;;;;;;11.88;0.80;;;;;;;11.35;100.00;101717.66;5035689;28;20474;-54
2022/10/07 01:14:49;;;;;;;4.75;0.55;;;;;;;11.33;100.00;101711.69;5041780;28;20393;-49
2022/10/07 01:17:23;;;;;;;7.50;1.60;;;;;;;11.33;100.00;101709.03;5040055;28;20033;-47
2022/10/07 01:20:02;;;;;;;7.45;1.15;;;;;;;11.39;100.00;101705.72;5037699;28;20038;-49
2022/10/07 01:22:45;;;;;;;6.45;1.00;;;;;;;11.46;100.00;101706.72;5040758;28;20394;-50
2022/10/07 01:25:23;;;;;;;8.75;1.05;;;;;;;11.51;100.00;101703.53;5035859;28;20478;-51
2022/10/07 01:28:11;;;;;;;17.27;2.25;;;;;;;11.51;100.00;101693.78;5040897;28;20064;-51
2022/10/07 01:30:41;;;;;;;13.32;2.08;;;;;;;11.49;100.00;101692.28;5044582;28;20409;-50
2022/10/07 01:33:16;;;;;;;4.85;1.52;;;;;;;11.48;100.00;101687.94;5041685;28;20363;-47
2022/10/07 01:35:44;;;;;;;9.73;0.40;;;;;;;11.45;100.00;101694.44;5043647;28;20043;-53
2022/10/07 01:38:12;;;;;;;6.88;1.83;;;;;;;11.43;100.00;101679.66;5034711;28;20029;-49
2022/10/07 01:40:50;;;;;;;4.60;0.65;;;;;;;11.42;100.00;101680.66;5037807;28;20028;-47
2022/10/07 01:43:19;;;;;;;4.68;0.50;;;;;;;11.43;100.00;101690.28;5042693;28;20029;-46
2022/10/07 01:45:46;;;;;;;3.70;1.33;;;;;;;11.36;100.00;101674.19;5043643;28;20143;-46
2022/10/07 01:48:12;;;;;;;3.85;2.25;;;;;;;11.31;100.00;101677.34;5041599;28;20025;-46
2022/10/07 01:50:38;;;;;;;6.47;0.57;;;;;;;11.33;100.00;101663.88;5030281;28;20044;-46
2022/10/07 01:53:19;;;;;;;7.55;2.20;;;;;;;11.37;100.00;101659.91;5033458;28;20378;-47
2022/10/07 01:56:09;;;;;;;9.63;1.08;;;;;;;11.40;100.00;101661.41;5038811;28;20033;-46
2022/10/07 01:58:44;;;;;;;5.43;1.45;;;;;;;11.45;100.00;101651.09;5036689;28;20033;-47
2022/10/07 02:01:27;;;;;;;4.22;0.47;;;;;;;11.42;100.00;101646.97;5034953;28;20490;-47
2022/10/07 02:04:06;;;;;;;12.35;0.88;;;;;;;11.34;100.00;101649.63;5037543;28;20052;-47
2022/10/07 02:06:38;;;;;;;6.47;1.88;;;;;;;11.30;100.00;101638.50;5040447;28;20036;-49
2022/10/07 02:09:19;;;;;;;7.32;1.45;;;;;;;11.20;100.00;101627.22;5038834;28;20436;-49
2022/10/07 02:11:54;;;;;;;7.97;0.98;;;;;;;11.16;100.00;101625.09;5033563;28;20033;-51
2022/10/07 02:14:28;;;;;;;10.23;1.25;;;;;;;11.11;100.00;101629.06;5033432;28;20437;-48
2022/10/07 02:17:00;;;;;;;13.00;2.22;;;;;;;11.07;100.00;101617.09;5041692;28;20090;-50
2022/10/07 02:19:38;;;;;;;9.18;1.88;;;;;;;11.06;100.00;101614.63;5036349;28;20029;-47
2022/10/07 02:22:06;;;;;;;6.38;1.08;;;;;;;11.03;100.00;101621.09;5041450;28;20086;-51
2022/10/07 02:24:34;;;;;;;5.20;0.35;;;;;;;11.06;100.00;101615.47;5038324;28;20033;-49
2022/10/07 02:27:04;;;;;;;8.25;0.73;;;;;;;11.08;100.00;101616.13;5045931;28;20041;-47
2022/10/07 02:29:34;;;;;;;3.58;0.50;;;;;;;11.02;100.00;101614.16;5042729;28;20427;-48
2022/10/07 02:32:04;;;;;;;10.18;0.80;;;;;;;10.96;100.00;101604.19;5038778;28;20044;-54
2022/10/07 02:34:30;;;;;;;8.23;1.20;;;;;;;10.97;100.00;101603.22;5032732;28;20017;-49
2022/10/07 02:37:04;;;;;;;4.82;1.55;;;;;;;10.98;100.00;101594.25;5041520;28;20024;-48
2022/10/07 02:39:29;;;;;;;8.00;1.25;;;;;;;10.91;100.00;101591.41;5033191;28;20021;-48
2022/10/07 02:42:10;;;;;;;7.15;0.80;;;;;;;10.91;100.00;101590.59;5030275;28;20381;-47
2022/10/07 02:44:47;;;;;;;5.13;0.30;;;;;;;10.92;100.00;101594.91;5042160;28;20391;-47
2022/10/07 02:47:13;;;;;;;4.07;0.45;;;;;;;10.87;100.00;101589.28;5042810;28;20029;-47
2022/10/07 02:49:41;;;;;;;9.85;1.00;;;;;;;10.88;100.00;101580.31;5039833;28;20330;-49
2022/10/07 02:52:18;;;;;;;9.70;0.65;;;;;;;10.93;100.00;101583.28;5036822;28;20025;-47
2022/10/07 02:54:51;;;;;;;6.65;1.52;;;;;;;10.94;100.00;101582.28;5040723;28;20026;-50
2022/10/07 02:57:19;;;;;;;5.97;1.00;;;;;;;10.95;100.00;101583.97;5038278;28;20483;-47
2022/10/07 02:59:48;;;;;;;10.43;1.42;;;;;;;11.01;100.00;101574.50;5034829;28;20029;-48
2022/10/07 03:02:20;;;;;;;5.95;1.02;;;;;;;11.07;100.00;101573.81;5035862;28;20389;-48
2022/10/07 03:04:45;;;;;;;8.88;1.92;;;;;;;11.09;100.00;101569.19;5041004;28;20025;-47
2022/10/07 03:07:12;;;;;;;8.50;2.10;;;;;;;11.08;100.00;101565.69;5037401;28;20031;-49
2022/10/07 03:09:38;;;;;;;13.45;1.75;;;;;;;11.07;100.00;101558.72;5043732;28;20048;-49
2022/10/07 03:12:04;;;;;;;9.75;0.50;;;;;;;11.06;100.00;101557.06;5039975;28;20021;-53
2022/10/07 03:14:30;;;;;;;9.18;1.35;;;;;;;11.08;100.00;101551.59;5031616;28;20029;-51
2022/10/07 03:16:55;;;;;;;7.22;1.08;;;;;;;11.07;100.00;101552.59;5040741;28;20017;-50
2022/10/07 03:19:20;;;;;;;7.97;1.33;;;;;;;11.03;100.00;101549.44;5036430;28;20030;-54
2022/10/07 03:21:46;;;;;;;7.45;1.63;;;;;;;11.06;100.00;101541.16;5040133;28;20540;-52
2022/10/07 03:24:11;;;;;;;8.27;0.65;;;;;;;11.08;100.00;101538.34;5033912;28;20052;-50
2022/10/07 03:26:37;;;;;;;3.90;0.80;;;;;;;11.08;100.00;101544.47;5030268;28;20097;-49
2022/10/07 03:29:03;;;;;;;3.40;1.20;;;;;;;11.13;100.00;101533.34;5037275;28;20108;-47
2022/10/07 03:31:29;;;;;;;16.25;1.40;;;;;;;11.17;100.00;101539.13;5032393;28;20029;-50
2022/10/07 03:33:56;;;;;;;3.95;1.48;;;;;;;11.19;100.00;101535.31;5033265;28;20039;-49
2022/10/07 03:36:22;;;;;;;12.93;0.77;;;;;;;11.23;100.00;101525.19;5036550;28;20382;-52
2022/10/07 03:38:48;;;;;;;5.10;0.57;;;;;;;11.25;100.00;101523.19;5035186;28;20147;-47
2022/10/07 03:41:13;;;;;;;17.95;1.88;;;;;;;11.25;100.00;101523.19;5039773;28;20304;-48
2022/10/07 03:43:39;;;;;;;5.82;0.82;;;;;;;11.22;100.00;101524.34;5033083;28;20026;-48
2022/10/07 03:46:04;;;;;;;9.50;1.98;;;;;;;11.18;100.00;101511.59;5038130;28;20040;-49
2022/10/07 03:48:30;;;;;;;12.20;1.17;;;;;;;11.13;100.00;101507.63;5037549;28;20112;-48
2022/10/07 03:50:56;;;;;;;5.32;1.10;;;;;;;11.04;100.00;101507.81;5031394;28;20033;-47
2022/10/07 03:53:23;;;;;;;8.77;0.60;;;;;;;10.99;100.00;101508.31;5037594;28;21008;-48
2022/10/07 03:55:48;;;;;;;6.07;1.05;;;;;;;10.93;100.00;101514.31;5031138;28;20104;-47
2022/10/07 03:58:14;;;;;;;2.90;0.80;;;;;;;10.89;100.00;101511.16;5032477;28;20182;-52
2022/10/07 04:00:40;;;;;;;2.50;0.88;;;;;;;10.87;100.00;101509.69;5037331;28;20497;-49
2022/10/07 04:03:06;;;;;;;10.25;0.85;;;;;;;10.87;100.00;101515.00;5037777;28;20036;-54
2022/10/07 04:05:32;;;;;;;13.50;2.05;;;;;;;10.86;100.00;101508.00;5032115;28;20401;-49
2022/10/07 04:07:57;;;;;;;2.10;0.30;;;;;;;10.91;100.00;101516.28;5034566;28;20025;-51
2022/10/07 04:10:23;;;;;;;12.95;1.08;;;;;;;10.91;100.00;101509.16;5033000;28;20048;-51
2022/10/07 04:12:51;;;;;;;10.18;1.58;;;;;;;10.87;100.00;101507.03;5033806;28;20115;-50
2022/10/07 04:15:17;;;;;;;12.95;1.48;;;;;;;10.89;100.00;101515.63;5028794;28;20026;-52
2022/10/07 04:17:44;;;;;;;6.25;1.50;;;;;;;10.91;100.00;101517.13;5043346;28;20934;-51
2022/10/07 04:20:11;;;;;;;9.15;0.77;;;;;;;10.90;100.00;101507.50;5035866;28;21022;-47
2022/10/07 04:22:37;;;;;;;7.57;1.98;;;;;;;10.82;100.00;101501.41;5043689;28;20032;-50
2022/10/07 04:27:55;;;;;;;7.10;0.70;;;;;;;10.71;100.00;101499.88;5042293;28;20059;-49
2022/10/07 04:30:21;;;;;;;4.43;0.80;;;;;;;10.56;100.00;101502.41;5030554;28;20383;-48
2022/10/07 04:32:49;;;;;;;4.68;1.42;;;;;;;10.47;100.00;101496.25;5034256;28;20684;-49
2022/10/07 04:35:20;;;;;;;12.90;0.43;;;;;;;10.42;100.00;101500.41;5032027;28;20029;-49
2022/10/07 04:37:52;;;;;;;7.68;0.82;;;;;;;10.36;100.00;101495.75;5036790;28;20067;-47
2022/10/07 04:40:19;;;;;;;11.40;1.95;;;;;;;10.33;100.00;101496.09;5035160;28;20033;-52
2022/10/07 04:45:35;;;;;;;2.20;0.30;;;;;;;10.22;100.00;101494.53;5037160;28;20036;-48
2022/10/07 04:48:04;;;;;;;4.80;0.40;;;;;;;10.19;100.00;101489.56;5030622;28;20033;-48
2022/10/07 04:50:31;;;;;;;2.60;0.65;;;;;;;10.14;100.00;101486.59;5037660;28;20797;-48
2022/10/07 04:52:56;;;;;;;4.78;1.08;;;;;;;10.09;100.00;101478.28;5041810;28;20449;-47
2022/10/07 04:55:22;;;;;;;3.38;0.17;;;;;;;10.13;100.00;101487.59;5032939;28;20033;-47
2022/10/07 04:57:48;;;;;;;4.40;0.90;;;;;;;10.14;100.00;101487.41;5035808;28;20040;-47
2022/10/07 05:00:14;;;;;;;5.47;1.00;;;;;;;10.15;100.00;101491.72;5038035;28;20029;-47
2022/10/07 05:02:39;;;;;;;7.75;1.17;;;;;;;10.19;100.00;101478.97;5039421;28;20051;-52
2022/10/07 05:05:05;;;;;;;9.60;1.13;;;;;;;10.26;100.00;101478.16;5036524;28;20029;-50
2022/10/07 05:07:31;;;;;;;4.60;0.88;;;;;;;10.36;100.00;101474.56;5031461;28;20081;-53
2022/10/07 05:09:56;;;;;;;0.88;0.43;;;;;;;10.42;100.00;101476.53;5038760;28;20064;-51
2022/10/07 05:12:22;;;;;;;3.45;0.65;;;;;;;10.46;100.00;101473.38;5040290;28;20025;-49
2022/10/07 05:14:48;;;;;;;12.27;1.70;;;;;;;10.48;100.00;101465.28;5033241;28;20481;-50
2022/10/07 05:17:13;;;;;;;3.13;0.85;;;;;;;10.45;100.00;101462.94;5036661;28;20030;-49
2022/10/07 05:19:39;;;;;;;3.40;0.57;;;;;;;10.50;100.00;101463.25;5034969;28;20028;-51
2022/10/07 05:22:05;;;;;;;3.20;0.85;;;;;;;10.51;100.00;101466.75;5034162;28;20260;-49
2022/10/07 05:24:31;;;;;;;9.05;0.60;;;;;;;10.46;100.00;101472.56;5047693;28;20041;-53
2022/10/07 05:26:56;;;;;;;1.33;0.40;;;;;;;10.43;100.00;101471.06;5030194;28;20048;-49
2022/10/07 05:29:22;;;;;;;5.07;1.20;;;;;;;10.42;100.00;101469.41;5030233;28;20055;-49
2022/10/07 05:31:48;;;;;;;7.07;1.17;;;;;;;10.34;100.00;101465.94;5028518;28;20100;-47
2022/10/07 05:34:15;;;;;;;7.70;0.90;;;;;;;10.29;100.00;101463.75;5035682;28;20120;-47
2022/10/07 05:36:41;;;;;;;4.50;1.25;;;;;;;10.22;100.00;101458.28;5043195;28;20470;-47
2022/10/07 05:39:10;;;;;;;5.45;0.55;;;;;;;10.28;100.00;101458.66;5038076;28;20383;-48
2022/10/07 05:41:38;;;;;;;2.78;0.50;;;;;;;10.31;100.00;101453.00;5031478;28;20064;-49
2022/10/07 05:44:03;;;;;;;4.57;1.15;;;;;;;10.30;100.00;101451.34;5043128;28;20473;-47
2022/10/07 05:46:29;;;;;;;2.38;0.50;;;;;;;10.30;100.00;101451.34;5034043;28;20510;-48
2022/10/07 05:48:54;;;;;;;1.00;0.25;;;;;;;10.28;100.00;101448.88;5037908;28;20087;-48
2022/10/07 05:51:21;;;;;;;2.45;0.20;;;;;;;10.25;100.00;101441.22;5045785;28;20470;-53
2022/10/07 05:53:47;;;;;;;7.95;1.55;;;;;;;10.23;100.00;101449.31;5036656;28;20037;-52
2022/10/07 05:56:20;;;;;;;3.05;0.15;;;;;;;10.33;100.00;101453.69;5029103;28;20038;-49
2022/10/07 05:58:49;;;;;;;6.47;0.45;;;;;;;10.43;100.00;101449.03;5035245;28;20039;-52
2022/10/07 06:01:17;;;;;;;4.75;0.50;;;;;;;10.55;100.00;101442.38;5040694;28;20033;-50
2022/10/07 06:03:48;;;;;;;0.63;0.17;;;;;;;10.64;100.00;101440.56;5042256;28;20119;-52
2022/10/07 06:06:14;;;;;;;1.70;1.00;;;;;;;10.69;100.00;101444.38;5043139;28;20033;-51
2022/10/07 06:08:39;;;;;;;8.65;1.25;;;;;;;10.76;100.00;101449.81;5035114;28;20033;-49
2022/10/07 06:13:51;;;;;;;3.90;0.30;;;;;;;10.83;100.00;101445.50;5047713;28;20084;-48
2022/10/07 06:16:17;;;;;;;2.30;0.32;;;;;;;10.87;100.00;101435.38;5034949;28;20025;-48
2022/10/07 06:18:42;;;;;;;1.95;0.20;;;;;;;10.90;100.00;101435.88;5037317;28;20052;-53
2022/10/07 06:21:08;;;;;;;10.55;1.25;;;;;;;10.95;100.00;101432.72;5035005;28;20052;-52
2022/10/07 06:23:34;;;;;;;4.20;0.50;;;;;;;10.98;100.00;101436.84;5037415;28;20032;-54
2022/10/07 06:26:05;;;;;;;3.28;0.40;;;;;;;11.00;100.00;101425.06;5037767;28;20045;-53
2022/10/07 06:28:38;;;;;;;10.73;0.75;;;;;;;11.02;100.00;101433.69;5033060;28;20037;-48
2022/10/07 06:31:05;;;;;;;5.15;1.42;;;;;;;11.06;100.00;101437.66;5038732;28;20022;-48
2022/10/07 06:33:31;;;;;;;3.55;0.40;;;;;;;11.07;100.00;101430.50;5035682;28;20039;-47
2022/10/07 06:35:56;;;;;;;3.55;1.05;;;;;;;11.09;100.00;101433.81;5034683;28;20037;-47
2022/10/07 06:38:22;;;;;;;5.78;0.60;;;;;;;11.09;100.00;101439.94;5037944;28;20026;-48
2022/10/07 06:40:57;;;;;;;6.43;0.47;;;;;;;11.17;100.00;101432.97;5040047;28;20032;-48
2022/10/07 06:43:24;;;;;;;2.08;0.35;;;;;;;11.18;100.00;101430.16;5035959;28;20021;-50
2022/10/07 06:45:49;;;;;;;5.47;0.60;;;;;;;11.19;100.00;101425.66;5037031;28;20025;-51
2022/10/07 06:48:14;;;;;;;1.98;0.10;;;;;;;11.20;100.00;101419.34;5035297;28;20029;-52
2022/10/07 06:50:48;;;;;;;3.00;1.50;;;;;;;11.25;100.00;101425.78;5033989;28;20041;-47
2022/10/07 06:53:14;;;;;;;4.97;1.13;;;;;;;11.28;100.00;101421.97;5033139;28;20017;-52
2022/10/07 06:55:39;;;;;;;2.55;0.22;;;;;;;11.31;100.00;101418.97;5035458;28;20036;-49
2022/10/07 06:58:04;;;;;;;7.18;1.77;;;;;;;11.34;100.00;101421.28;5041395;28;20334;-50
2022/10/07 07:00:30;;;;;;;5.70;1.42;;;;;;;11.38;100.00;101417.28;5037021;28;20058;-48
2022/10/07 07:03:00;;;;;;;4.50;0.30;;;;;;;11.40;100.00;101417.94;5041020;28;20530;-53
2022/10/07 07:05:36;;;;;;;4.72;0.38;;;;;;;11.43;100.00;101414.91;5054431;28;20593;-50
2022/10/07 07:08:01;;;;;;;6.70;0.38;;;;;;;11.47;100.00;101415.41;5043779;28;20021;-48
2022/10/07 07:10:27;;;;;;;5.75;0.30;;;;;;;11.51;100.00;101412.25;5032165;28;20040;-51
2022/10/07 07:12:53;;;;;;;8.93;0.63;;;;;;;11.56;100.00;101411.69;5039617;28;20066;-47
2022/10/07 07:15:18;;;;;;;4.35;1.08;;;;;;;11.60;100.00;101414.84;5036823;28;20530;-49
2022/10/07 07:17:44;;;;;;;2.80;0.20;;;;;;;11.65;100.00;101417.81;5041122;28;20074;-51
2022/10/07 07:20:09;;;;;;;3.92;0.52;;;;;;;11.69;100.00;101405.81;5037266;28;20396;-46
2022/10/07 07:22:35;;;;;;;4.97;0.68;;;;;;;11.72;100.00;101416.09;5024718;28;20067;-51
2022/10/07 07:25:00;;;;;;;7.22;0.57;;;;;;;11.76;100.00;101414.75;5032228;28;20068;-49
2022/10/07 07:27:25;;;;;;;3.22;0.50;;;;;;;11.81;100.00;101416.88;5028122;28;20056;-50
2022/10/07 07:29:51;;;;;;;6.25;1.15;;;;;;;11.85;100.00;101408.38;5035716;28;20059;-53
2022/10/07 07:32:16;;;;;;;6.18;0.40;;;;;;;11.89;100.00;101407.03;5039421;28;20060;-51
2022/10/07 07:34:41;;;;;;;4.57;0.45;;;;;;;12.02;100.00;101417.09;5037700;28;20029;-52
2022/10/07 07:37:07;;;;;;;4.95;0.30;;;;;;;12.14;100.00;101423.63;5040064;28;20033;-46
2022/10/07 07:39:32;;;;;;;6.00;0.60;;;;;;;12.20;100.00;101408.81;5051964;28;20028;-51
2022/10/07 07:41:58;;;;;;;5.45;0.45;;;;;;;12.33;100.00;101417.00;5039312;28;20104;-51
2022/10/07 07:44:23;;;;;;;4.60;0.70;;;;;;;12.43;100.00;101404.28;5039599;28;20025;-50
2022/10/07 07:46:51;;;;;;;7.38;0.52;;;;;;;12.47;100.00;101401.25;5042349;28;20060;-53
2022/10/07 07:49:18;;;;;;;5.88;0.82;;;;;;;12.52;100.00;101389.06;5044667;28;20382;-54
2022/10/07 07:51:44;;;;;;;7.05;0.60;;;;;;;12.52;100.00;101389.06;5046508;28;20029;-53
2022/10/07 07:54:11;;;;;;;4.75;0.82;;;;;;;12.50;100.00;101390.28;5041481;28;20032;-49
2022/10/07 07:56:37;;;;;;;3.35;0.50;;;;;;;12.50;100.00;101379.63;5038263;28;20059;-49
2022/10/07 07:59:03;;;;;;;3.63;1.35;;;;;;;12.46;100.00;101386.31;5039828;28;20033;-52
2022/10/07 08:01:34;;;;;;;2.70;0.60;;;;;;;12.47;100.00;101377.31;5040008;28;20382;-50
2022/10/07 08:04:00;;;;;;;2.72;0.45;;;;;;;12.54;100.00;101380.91;5036513;28;20043;-48
2022/10/07 08:06:27;;;;;;;7.22;0.50;;;;;;;12.59;100.00;101381.19;5039495;28;20056;-50
2022/10/07 08:08:58;;;;;;;2.50;0.60;;;;;;;12.64;100.00;101381.47;5038448;28;20048;-52
2022/10/07 08:11:23;;;;;;;2.38;0.50;;;;;;;12.64;100.00;101374.28;5037934;28;20037;-49
2022/10/07 08:13:48;;;;;;;1.75;0.80;;;;;;;12.65;100.00;101368.00;5043692;28;20039;-54
2022/10/07 08:16:16;;;;;;;6.07;1.38;;;;;;;12.68;100.00;101364.13;5038332;28;20033;-49
2022/10/07 08:18:47;;;;;;;6.15;0.52;;;;;;;12.68;100.00;101361.47;5038886;28;20037;-49
2022/10/07 08:21:14;;;;;;;9.13;0.47;;;;;;;12.70;100.00;101358.59;5039588;28;20037;-52
2022/10/07 08:23:40;;;;;;;7.47;1.27;;;;;;;12.75;100.00;101362.41;5036238;28;20032;-51
2022/10/07 08:26:07;;;;;;;2.03;0.20;;;;;;;12.77;100.00;101362.19;5045400;28;20045;-48
2022/10/07 08:28:33;;;;;;;4.00;0.60;;;;;;;12.79;100.00;101353.03;5035798;28;20044;-49
2022/10/07 08:31:05;;;;;;;4.65;0.65;;;;;;;12.81;100.00;101347.53;5035717;28;20037;-47
2022/10/07 08:33:35;;;;;;;;;;;;;;;12.82;100.00;101342.00;5038968;28;20134;-47
2022/10/07 08:36:03;;;;;;;1.90;0.20;;;;;;;12.88;100.00;101341.28;5034211;28;19923;-47
2022/10/07 08:38:33;;;;;;;3.47;0.85;;;;;;;12.96;100.00;101332.38;5044648;28;20513;-47
2022/10/07 08:41:08;;;;;;;6.07;0.60;;;;;;;12.96;100.00;101328.84;5034232;28;20060;-51
2022/10/07 08:43:39;;;;;;;4.82;0.88;;;;;;;13.00;100.00;101327.47;5030333;28;20029;-47
2022/10/07 08:46:11;;;;;;;4.05;0.65;;;;;;;13.18;100.00;101329.75;5038817;28;20044;-48
2022/10/07 08:48:37;;;;;;;5.45;1.40;;;;;;;13.31;100.00;101328.06;5036812;28;20033;-48
2022/10/07 08:51:05;;;;;;;5.72;0.47;;;;;;;13.58;100.00;101331.03;5037160;28;20479;-49
2022/10/07 08:53:35;;;;;;;5.93;1.17;;;;;;;13.93;100.00;101318.63;5035528;28;20513;-49
2022/10/07 08:56:10;;;;;;;2.30;1.58;;;;;;;14.26;100.00;101312.72;5050728;28;20056;-47
2022/10/07 08:58:48;;;;;;;3.20;0.13;;;;;;;14.49;100.00;101309.78;5040306;28;20490;-52
2022/10/07 09:01:26;;;;;;;1.75;0.65;;;;;;;14.50;100.00;101297.25;5040269;28;20374;-51
2022/10/07 09:04:01;;;;;;;5.63;0.73;;;;;;;14.57;100.00;101300.84;5032420;28;20033;-48
2022/10/07 09:06:34;;;;;;;1.83;0.25;;;;;;;14.56;100.00;101291.16;5037501;28;20026;-50
2022/10/07 09:09:15;;;;;;;4.78;0.82;;;;;;;14.72;100.00;101279.34;5038543;28;20479;-48
2022/10/07 09:11:44;;;;;;;2.58;0.57;;;;;;;14.77;100.00;101280.41;5038605;28;20025;-45
2022/10/07 09:14:29;;;;;;;4.82;0.63;;;;;;;14.89;100.00;101279.81;5031674;28;20037;-49
2022/10/07 09:17:28;;;;;;;5.90;0.30;;;;;;;14.92;100.00;101277.59;5038645;28;20057;-50
2022/10/07 09:19:58;;;;;;;6.53;0.50;;;;;;;14.95;100.00;101285.19;5035422;28;20037;-50
2022/10/07 09:22:36;;;;;;;2.28;0.50;;;;;;;14.89;100.00;101269.13;5039871;28;20120;-48
2022/10/07 09:25:16;;;;;;;7.10;0.40;;;;;;;14.96;100.00;101276.16;5038464;28;20493;-50
2022/10/07 09:27:42;;;;;;;3.25;0.68;;;;;;;14.94;100.00;101272.84;5032693;28;20042;-48
2022/10/07 09:30:12;;;;;;;2.67;0.52;;;;;;;14.85;100.00;101279.41;5045939;28;20037;-52
2022/10/07 09:32:41;;;;;;;2.72;0.28;;;;;;;14.84;100.00;101267.06;5042246;28;20032;-49
2022/10/07 09:35:11;;;;;;;3.63;0.70;;;;;;;14.87;100.00;101266.69;5044100;28;20048;-50
2022/10/07 09:37:53;;;;;;;3.10;0.75;;;;;;;14.97;100.00;101261.78;5049320;28;20036;-52
2022/10/07 09:41:13;;;;;;;3.55;0.85;;;;;;;15.02;100.00;101258.50;5049133;28;20040;-47
2022/10/07 09:43:23;;;;;;;6.05;0.50;;;;;;;15.13;100.00;101259.78;5048144;28;20427;-49
2022/10/07 09:45:48;;;;;;;3.78;0.40;;;;;;;15.19;100.00;101253.63;5034424;28;20531;-48
2022/10/07 09:48:22;;;;;;;6.30;1.60;;;;;;;15.43;100.00;101250.34;5037216;28;20141;-49
2022/10/07 09:50:48;;;;;;;3.08;0.50;;;;;;;15.61;100.00;101247.06;5036078;28;20084;-50
2022/10/07 09:53:25;;;;;;;4.40;0.45;;;;;;;15.77;100.00;101240.50;5043998;28;20021;-51
2022/10/07 09:55:53;;;;;;;0.40;0.25;;;;;;;15.68;100.00;101231.84;5038192;28;20033;-49
2022/10/07 09:58:30;;;;;;;3.00;0.10;;;;;;;15.57;100.00;101221.78;5047114;28;20032;-50
2022/10/07 10:01:00;;;;;;;2.25;0.73;;;;;;;15.52;100.00;101232.28;5038617;28;20032;-49
2022/10/07 10:03:31;;;;;;;4.25;0.20;;;;;;;15.49;100.00;101232.69;5035430;28;20022;-47
2022/10/07 10:06:00;;;;;;;6.15;0.88;;;;;;;15.56;100.00;101230.81;5039765;28;20048;-50
2022/10/07 10:08:36;;;;;;;7.53;0.80;;;;;;;15.66;100.00;101215.19;5043935;28;20064;-53
2022/10/07 10:11:05;;;;;;;6.47;0.32;;;;;;;15.77;100.00;101215.63;5043288;28;20040;-51
2022/10/07 10:13:31;;;;;;;7.35;0.60;;;;;;;15.80;100.00;101200.00;5040902;28;20494;-51
2022/10/07 10:15:58;;;;;;;3.30;0.50;;;;;;;15.85;100.00;101204.72;5043654;28;20043;-48
2022/10/07 10:18:40;;;;;;;2.08;0.30;;;;;;;15.79;100.00;101194.88;5035877;28;20033;-49
2022/10/07 10:21:18;;;;;;;2.67;0.85;;;;;;;15.82;100.00;101197.94;5034782;28;20022;-54
2022/10/07 10:23:59;;;;;;;5.43;1.05;;;;;;;15.84;100.00;101203.91;5032670;28;20041;-49
2022/10/07 10:26:40;;;;;;;3.00;0.75;;;;;;;15.63;100.00;101180.06;5035725;28;20383;-50
2022/10/07 10:29:16;;;;;;;;;;;;;;;15.54;100.00;101200.84;5038742;28;20482;-45
2022/10/07 10:32:04;;;;;;;2.05;0.30;;;;;;;15.61;100.00;101182.09;5034257;28;19924;-49
2022/10/07 10:34:42;;;;;;;6.60;0.20;;;;;;;15.99;100.00;101176.13;5036172;28;20034;-46
2022/10/07 10:37:17;;;;;;;1.52;0.17;;;;;;;16.01;100.00;101168.72;5033782;28;20022;-49
2022/10/07 10:40:06;;;;;;;2.63;1.20;;;;;;;16.00;100.00;101180.41;5035045;28;20033;-47
2022/10/07 10:42:58;;;;;;;6.13;0.38;;;;;;;16.00;100.00;101186.59;5033563;28;20048;-47
2022/10/07 10:46:09;;;;;;;7.43;0.30;;;;;;;16.02;100.00;101168.47;5034930;28;20429;-47
2022/10/07 10:48:52;;;;;;;4.30;0.75;;;;;;;15.77;100.00;101160.31;5031810;28;20038;-47
2022/10/07 10:51:37;;;;;;;3.83;1.15;;;;;;;15.68;100.00;101156.19;5037096;28;20029;-48
2022/10/07 10:54:27;;;;;;;1.85;0.20;;;;;;;15.55;100.00;101145.53;5035297;28;20113;-54
2022/10/07 10:57:02;;;;;;;4.13;1.80;;;;;;;15.58;100.00;101145.91;5034148;28;20044;-51
2022/10/07 10:59:55;;;;;;;2.88;0.28;;;;;;;15.91;100.00;101142.41;5038095;28;20028;-51
2022/10/07 11:02:55;;;;;;;3.25;0.15;;;;;;;16.35;100.00;101130.91;5039581;28;20042;-51
2022/10/07 11:05:24;;;;;;;3.63;0.10;;;;;;;16.39;100.00;101127.78;5034071;28;20044;-51
2022/10/07 11:08:22;;;;;;;2.38;0.52;;;;;;;16.45;100.00;101129.63;5036742;28;20057;-56
2022/10/07 11:10:55;;;;;;;4.95;0.10;;;;;;;16.85;100.00;101124.06;5029676;28;20571;-50
2022/10/07 11:13:29;;;;;;;4.20;0.50;;;;;;;17.11;100.00;101099.72;5033813;28;20390;-49
2022/10/07 11:16:00;;;;;;;1.67;0.20;;;;;;;16.92;100.00;101092.69;5037805;28;20641;-51
2022/10/07 11:18:44;;;;;;;4.68;0.70;;;;;;;17.11;100.00;101080.97;5039684;28;20033;-52
2022/10/07 11:21:19;;;;;;;3.80;0.10;;;;;;;16.84;100.00;101083.06;5035588;28;20030;-49
2022/10/07 11:24:00;;;;;;;3.60;0.95;;;;;;;16.91;100.00;101083.00;5037517;28;20453;-48
2022/10/07 11:26:32;;;;;;;1.45;0.57;;;;;;;16.91;100.00;101077.63;5034153;28;20049;-50
2022/10/07 11:29:02;;;;;;;4.57;0.40;;;;;;;16.62;100.00;101079.06;5034292;28;20394;-47
2022/10/07 11:31:43;;;;;;;2.17;0.40;;;;;;;16.77;100.00;101075.06;5033935;28;20474;-48
2022/10/07 11:34:52;;;;;;;8.27;0.35;;;;;;;17.25;100.00;101070.16;5037831;28;20041;-47
2022/10/07 11:37:29;;;;;;;2.95;0.50;;;;;;;17.43;100.00;101049.56;5025467;28;20595;-48
2022/10/07 11:39:54;;;;;;;0.73;0.25;;;;;;;17.44;100.00;101066.44;5035637;28;20778;-48